sensor_id;sensor_type;location;lat;lon;timestamp;pressure;altitude;pressure_sealevel;temperature;humidity
77893;BME280;67087;50.094;14.338;2023-07-22T00:01:36;97723.25;;;26.95;28.40
77893;BME280;67087;50.094;14.338;2023-07-22T00:04:01;97721.93;;;27.01;28.30
77893;BME280;67087;50.094;14.338;2023-07-22T00:06:27;97721.88;;;26.88;27.96
77893;BME280;67087;50.094;14.338;2023-07-22T00:08:51;97726.32;;;26.81;28.40
77893;BME280;67087;50.094;14.338;2023-07-22T00:11:16;97729.97;;;27.01;28.21
77893;BME280;67087;50.094;14.338;2023-07-22T00:13:41;97729.28;;;26.76;28.43
77893;BME280;67087;50.094;14.338;2023-07-22T00:16:07;97731.37;;;27.31;27.81
77893;BME280;67087;50.094;14.338;2023-07-22T00:18:32;97735.32;;;26.72;28.38
77893;BME280;67087;50.094;14.338;2023-07-22T00:20:57;97741.52;;;27.45;27.83
77893;BME280;67087;50.094;14.338;2023-07-22T00:23:23;97742.69;;;26.82;28.17
77893;BME280;67087;50.094;14.338;2023-07-22T00:25:47;97742.66;;;26.67;28.28
77893;BME280;67087;50.094;14.338;2023-07-22T00:28:12;97741.65;;;26.96;28.20
77893;BME280;67087;50.094;14.338;2023-07-22T00:30:37;97743.38;;;26.78;28.12
77893;BME280;67087;50.094;14.338;2023-07-22T00:33:02;97741.49;;;27.40;27.84
77893;BME280;67087;50.094;14.338;2023-07-22T00:35:27;97740.12;;;26.26;27.91
77893;BME280;67087;50.094;14.338;2023-07-22T00:37:53;97737.50;;;26.98;27.62
77893;BME280;67087;50.094;14.338;2023-07-22T00:40:18;97739.94;;;26.55;28.00
77893;BME280;67087;50.094;14.338;2023-07-22T00:42:43;97741.22;;;26.82;27.60
77893;BME280;67087;50.094;14.338;2023-07-22T00:45:08;97742.17;;;26.97;27.95
77893;BME280;67087;50.094;14.338;2023-07-22T00:47:34;97738.89;;;26.93;27.61
77893;BME280;67087;50.094;14.338;2023-07-22T00:50:00;97742.59;;;26.45;27.90
77893;BME280;67087;50.094;14.338;2023-07-22T00:52:24;97741.37;;;26.49;27.69
77893;BME280;67087;50.094;14.338;2023-07-22T00:54:48;97739.03;;;26.51;27.57
77893;BME280;67087;50.094;14.338;2023-07-22T00:57:15;97743.04;;;27.40;26.81
77893;BME280;67087;50.094;14.338;2023-07-22T00:59:39;97750.03;;;27.03;27.23
77893;BME280;67087;50.094;14.338;2023-07-22T01:02:04;97749.60;;;27.55;26.80
77893;BME280;67087;50.094;14.338;2023-07-22T01:04:29;97753.52;;;25.81;27.58
77893;BME280;67087;50.094;14.338;2023-07-22T01:06:54;97756.06;;;26.75;27.29
77893;BME280;67087;50.094;14.338;2023-07-22T01:09:19;97751.14;;;27.11;26.87
77893;BME280;67087;50.094;14.338;2023-07-22T01:11:44;97747.18;;;26.41;27.36
77893;BME280;67087;50.094;14.338;2023-07-22T01:14:09;97742.93;;;27.00;26.59
77893;BME280;67087;50.094;14.338;2023-07-22T01:16:35;97747.04;;;26.50;27.12
77893;BME280;67087;50.094;14.338;2023-07-22T01:19:00;97751.10;;;26.31;27.37
77893;BME280;67087;50.094;14.338;2023-07-22T01:21:26;97752.87;;;25.88;27.39
77893;BME280;67087;50.094;14.338;2023-07-22T01:23:50;97745.93;;;26.71;26.82
77893;BME280;67087;50.094;14.338;2023-07-22T01:26:15;97748.67;;;26.91;26.64
77893;BME280;67087;50.094;14.338;2023-07-22T01:28:40;97754.43;;;26.33;27.17
77893;BME280;67087;50.094;14.338;2023-07-22T01:31:05;97751.97;;;26.47;27.05
77893;BME280;67087;50.094;14.338;2023-07-22T01:33:30;97754.09;;;25.81;27.26
77893;BME280;67087;50.094;14.338;2023-07-22T01:35:55;97751.90;;;26.43;27.36
77893;BME280;67087;50.094;14.338;2023-07-22T01:38:21;97749.07;;;26.73;27.27
77893;BME280;67087;50.094;14.338;2023-07-22T01:40:46;97748.67;;;26.29;27.23
77893;BME280;67087;50.094;14.338;2023-07-22T01:43:11;97749.59;;;26.65;27.11
77893;BME280;67087;50.094;14.338;2023-07-22T01:45:36;97750.61;;;25.98;27.34
77893;BME280;67087;50.094;14.338;2023-07-22T01:48:01;97755.79;;;26.52;27.26
77893;BME280;67087;50.094;14.338;2023-07-22T01:50:27;97759.52;;;26.49;26.96
77893;BME280;67087;50.094;14.338;2023-07-22T01:52:51;97761.92;;;26.68;26.96
77893;BME280;67087;50.094;14.338;2023-07-22T01:55:16;97762.41;;;26.65;26.97
77893;BME280;67087;50.094;14.338;2023-07-22T01:57:42;97761.66;;;26.05;27.30
77893;BME280;67087;50.094;14.338;2023-07-22T02:00:07;97766.58;;;26.74;27.08
77893;BME280;67087;50.094;14.338;2023-07-22T02:02:32;97770.84;;;26.00;27.38
77893;BME280;67087;50.094;14.338;2023-07-22T02:04:57;97769.69;;;26.64;27.22
77893;BME280;67087;50.094;14.338;2023-07-22T02:07:22;97770.42;;;26.31;27.56
77893;BME280;67087;50.094;14.338;2023-07-22T02:09:47;97768.26;;;25.72;27.69
77893;BME280;67087;50.094;14.338;2023-07-22T02:12:12;97767.19;;;26.47;27.42
77893;BME280;67087;50.094;14.338;2023-07-22T02:14:37;97768.02;;;26.25;27.38
77893;BME280;67087;50.094;14.338;2023-07-22T02:17:03;97771.79;;;26.66;27.19
77893;BME280;67087;50.094;14.338;2023-07-22T02:19:28;97773.97;;;25.31;27.59
77893;BME280;67087;50.094;14.338;2023-07-22T02:21:53;97777.20;;;26.43;27.45
77893;BME280;67087;50.094;14.338;2023-07-22T02:24:18;97775.87;;;26.45;27.41
77893;BME280;67087;50.094;14.338;2023-07-22T02:26:43;97773.98;;;26.04;27.30
77893;BME280;67087;50.094;14.338;2023-07-22T02:29:08;97775.13;;;25.88;27.72
77893;BME280;67087;50.094;14.338;2023-07-22T02:31:33;97776.35;;;25.64;27.71
77893;BME280;67087;50.094;14.338;2023-07-22T02:33:59;97782.09;;;26.54;27.23
77893;BME280;67087;50.094;14.338;2023-07-22T02:36:24;97786.74;;;25.83;27.47
77893;BME280;67087;50.094;14.338;2023-07-22T02:38:49;97792.41;;;26.25;27.20
77893;BME280;67087;50.094;14.338;2023-07-22T02:41:14;97798.18;;;26.60;26.99
77893;BME280;67087;50.094;14.338;2023-07-22T02:43:39;97796.97;;;26.71;26.84
77893;BME280;67087;50.094;14.338;2023-07-22T02:46:06;97800.29;;;26.46;27.10
77893;BME280;67087;50.094;14.338;2023-07-22T02:48:30;97800.53;;;25.78;27.33
77893;BME280;67087;50.094;14.338;2023-07-22T02:50:55;97802.84;;;26.46;27.08
77893;BME280;67087;50.094;14.338;2023-07-22T02:53:21;97808.07;;;26.33;27.24
77893;BME280;67087;50.094;14.338;2023-07-22T02:55:45;97811.51;;;26.00;26.98
77893;BME280;67087;50.094;14.338;2023-07-22T02:58:10;97825.17;;;26.34;27.13
77893;BME280;67087;50.094;14.338;2023-07-22T03:00:35;97823.88;;;26.35;26.54
77893;BME280;67087;50.094;14.338;2023-07-22T03:03:00;97818.85;;;25.96;27.47
77893;BME280;67087;50.094;14.338;2023-07-22T03:05:26;97816.85;;;25.78;27.08
77893;BME280;67087;50.094;14.338;2023-07-22T03:07:51;97816.09;;;26.32;26.96
77893;BME280;67087;50.094;14.338;2023-07-22T03:10:16;97819.45;;;26.56;26.70
77893;BME280;67087;50.094;14.338;2023-07-22T03:12:41;97822.25;;;26.77;26.40
77893;BME280;67087;50.094;14.338;2023-07-22T03:15:07;97822.43;;;25.98;27.12
77893;BME280;67087;50.094;14.338;2023-07-22T03:17:32;97829.10;;;25.53;27.08
77893;BME280;67087;50.094;14.338;2023-07-22T03:19:57;97835.86;;;26.30;27.03
77893;BME280;67087;50.094;14.338;2023-07-22T03:22:22;97834.50;;;25.79;27.29
77893;BME280;67087;50.094;14.338;2023-07-22T03:24:47;97837.47;;;25.76;26.85
77893;BME280;67087;50.094;14.338;2023-07-22T03:27:14;97832.93;;;25.91;27.10
77893;BME280;67087;50.094;14.338;2023-07-22T03:29:38;97833.62;;;26.05;26.94
77893;BME280;67087;50.094;14.338;2023-07-22T03:32:03;97834.88;;;25.98;27.21
77893;BME280;67087;50.094;14.338;2023-07-22T03:34:29;97837.81;;;25.16;27.24
77893;BME280;67087;50.094;14.338;2023-07-22T03:36:53;97843.97;;;25.82;27.03
77893;BME280;67087;50.094;14.338;2023-07-22T03:39:18;97847.21;;;26.01;27.07
77893;BME280;67087;50.094;14.338;2023-07-22T03:41:43;97849.46;;;25.85;27.07
77893;BME280;67087;50.094;14.338;2023-07-22T03:44:08;97852.41;;;25.79;27.45
77893;BME280;67087;50.094;14.338;2023-07-22T03:46:33;97852.38;;;25.93;26.75
77893;BME280;67087;50.094;14.338;2023-07-22T03:48:58;97850.73;;;25.64;27.27
77893;BME280;67087;50.094;14.338;2023-07-22T03:51:24;97850.89;;;25.18;27.29
77893;BME280;67087;50.094;14.338;2023-07-22T03:53:49;97853.37;;;25.67;27.19
77893;BME280;67087;50.094;14.338;2023-07-22T03:56:14;97855.95;;;25.85;27.05
77893;BME280;67087;50.094;14.338;2023-07-22T03:58:39;97858.33;;;25.43;27.27
77893;BME280;67087;50.094;14.338;2023-07-22T04:01:04;97857.24;;;25.91;27.25
77893;BME280;67087;50.094;14.338;2023-07-22T04:03:29;97859.91;;;25.63;26.75
77893;BME280;67087;50.094;14.338;2023-07-22T04:05:55;97862.91;;;26.00;26.89
77893;BME280;67087;50.094;14.338;2023-07-22T04:08:20;97865.37;;;26.60;26.54
77893;BME280;67087;50.094;14.338;2023-07-22T04:10:51;97866.99;;;25.90;26.98
77893;BME280;67087;50.094;14.338;2023-07-22T04:13:10;97864.29;;;25.83;27.06
77893;BME280;67087;50.094;14.338;2023-07-22T04:15:35;97867.76;;;25.50;26.81
77893;BME280;67087;50.094;14.338;2023-07-22T04:18:00;97869.79;;;25.89;26.98
77893;BME280;67087;50.094;14.338;2023-07-22T04:20:26;97867.03;;;25.37;27.02
77893;BME280;67087;50.094;14.338;2023-07-22T04:22:50;97863.40;;;25.80;26.78
77893;BME280;67087;50.094;14.338;2023-07-22T04:25:16;97865.06;;;25.80;26.84
77893;BME280;67087;50.094;14.338;2023-07-22T04:27:41;97866.79;;;25.88;27.01
77893;BME280;67087;50.094;14.338;2023-07-22T04:30:07;97870.10;;;26.10;26.80
77893;BME280;67087;50.094;14.338;2023-07-22T04:32:31;97873.73;;;26.00;26.43
77893;BME280;67087;50.094;14.338;2023-07-22T04:34:56;97878.09;;;26.06;26.85
77893;BME280;67087;50.094;14.338;2023-07-22T04:37:22;97881.06;;;26.60;26.56
77893;BME280;67087;50.094;14.338;2023-07-22T04:39:48;97877.33;;;25.18;27.56
77893;BME280;67087;50.094;14.338;2023-07-22T04:42:12;97874.60;;;25.93;26.90
77893;BME280;67087;50.094;14.338;2023-07-22T04:44:37;97878.18;;;25.83;27.06
77893;BME280;67087;50.094;14.338;2023-07-22T04:47:02;97880.46;;;25.90;27.05
77893;BME280;67087;50.094;14.338;2023-07-22T04:49:27;97885.78;;;25.24;26.98
77893;BME280;67087;50.094;14.338;2023-07-22T04:51:52;97891.59;;;26.01;26.97
77893;BME280;67087;50.094;14.338;2023-07-22T04:54:17;97896.92;;;25.49;27.53
77893;BME280;67087;50.094;14.338;2023-07-22T04:56:42;97897.17;;;25.76;27.30
77893;BME280;67087;50.094;14.338;2023-07-22T04:59:08;97897.27;;;25.54;27.54
77893;BME280;67087;50.094;14.338;2023-07-22T05:01:33;97901.73;;;25.36;27.21
77893;BME280;67087;50.094;14.338;2023-07-22T05:03:58;97902.35;;;26.20;26.85
77893;BME280;67087;50.094;14.338;2023-07-22T05:06:24;97899.05;;;25.56;27.00
77893;BME280;67087;50.094;14.338;2023-07-22T05:08:48;97905.59;;;26.44;26.84
77893;BME280;67087;50.094;14.338;2023-07-22T05:11:13;97902.46;;;26.40;26.89
77893;BME280;67087;50.094;14.338;2023-07-22T05:13:38;97903.62;;;25.51;27.04
77893;BME280;67087;50.094;14.338;2023-07-22T05:16:04;97903.01;;;26.36;27.16
77893;BME280;67087;50.094;14.338;2023-07-22T05:18:29;97904.58;;;25.91;27.10
77893;BME280;67087;50.094;14.338;2023-07-22T05:20:54;97905.64;;;25.81;27.41
77893;BME280;67087;50.094;14.338;2023-07-22T05:23:19;97909.63;;;25.65;27.32
77893;BME280;67087;50.094;14.338;2023-07-22T05:28:09;97918.87;;;25.71;27.36
77893;BME280;67087;50.094;14.338;2023-07-22T05:30:34;97922.28;;;25.41;27.69
77893;BME280;67087;50.094;14.338;2023-07-22T05:33:00;97921.74;;;25.89;27.22
77893;BME280;67087;50.094;14.338;2023-07-22T05:35:25;97917.99;;;25.44;27.47
77893;BME280;67087;50.094;14.338;2023-07-22T05:37:50;97917.37;;;25.61;27.84
77893;BME280;67087;50.094;14.338;2023-07-22T05:40:15;97917.63;;;25.63;27.57
77893;BME280;67087;50.094;14.338;2023-07-22T05:42:40;97920.05;;;25.65;27.62
77893;BME280;67087;50.094;14.338;2023-07-22T05:45:06;97921.37;;;25.84;27.71
77893;BME280;67087;50.094;14.338;2023-07-22T05:47:30;97919.90;;;24.97;27.89
77893;BME280;67087;50.094;14.338;2023-07-22T05:49:55;97929.93;;;25.75;27.70
77893;BME280;67087;50.094;14.338;2023-07-22T05:52:21;97930.36;;;25.86;27.92
77893;BME280;67087;50.094;14.338;2023-07-22T05:54:46;97931.21;;;25.46;28.00
77893;BME280;67087;50.094;14.338;2023-07-22T05:57:11;97936.46;;;26.18;27.49
77893;BME280;67087;50.094;14.338;2023-07-22T05:59:36;97936.09;;;25.85;27.54
77893;BME280;67087;50.094;14.338;2023-07-22T06:02:01;97935.23;;;26.21;27.32
77893;BME280;67087;50.094;14.338;2023-07-22T06:04:27;97935.53;;;25.64;27.15
77893;BME280;67087;50.094;14.338;2023-07-22T06:06:52;97936.28;;;25.89;27.39
77893;BME280;67087;50.094;14.338;2023-07-22T06:09:17;97935.53;;;25.98;27.39
77893;BME280;67087;50.094;14.338;2023-07-22T06:11:42;97936.20;;;25.61;27.42
77893;BME280;67087;50.094;14.338;2023-07-22T06:14:07;97938.17;;;26.21;26.96
77893;BME280;67087;50.094;14.338;2023-07-22T06:16:32;97938.29;;;26.15;27.03
77893;BME280;67087;50.094;14.338;2023-07-22T06:18:57;97938.84;;;25.53;27.77
77893;BME280;67087;50.094;14.338;2023-07-22T06:21:23;97936.26;;;25.81;27.68
77893;BME280;67087;50.094;14.338;2023-07-22T06:23:48;97938.34;;;25.60;27.64
77893;BME280;67087;50.094;14.338;2023-07-22T06:26:13;97942.65;;;26.07;27.43
77893;BME280;67087;50.094;14.338;2023-07-22T06:28:39;97944.05;;;25.86;27.25
77893;BME280;67087;50.094;14.338;2023-07-22T06:31:04;97944.94;;;25.83;27.29
77893;BME280;67087;50.094;14.338;2023-07-22T06:33:29;97946.30;;;26.00;27.38
77893;BME280;67087;50.094;14.338;2023-07-22T06:35:54;97949.44;;;26.02;27.41
77893;BME280;67087;50.094;14.338;2023-07-22T06:38:19;97949.47;;;26.14;27.24
77893;BME280;67087;50.094;14.338;2023-07-22T06:40:44;97956.73;;;25.93;27.11
77893;BME280;67087;50.094;14.338;2023-07-22T06:43:09;97953.54;;;26.05;27.36
77893;BME280;67087;50.094;14.338;2023-07-22T06:45:34;97955.24;;;24.93;27.86
77893;BME280;67087;50.094;14.338;2023-07-22T06:48:00;97952.57;;;26.27;27.37
77893;BME280;67087;50.094;14.338;2023-07-22T06:50:25;97955.01;;;25.52;27.54
77893;BME280;67087;50.094;14.338;2023-07-22T06:52:50;97957.79;;;26.07;27.23
77893;BME280;67087;50.094;14.338;2023-07-22T06:55:15;97963.03;;;26.23;26.92
77893;BME280;67087;50.094;14.338;2023-07-22T06:57:40;97965.71;;;25.78;27.33
77893;BME280;67087;50.094;14.338;2023-07-22T07:00:06;97967.50;;;26.28;27.10
77893;BME280;67087;50.094;14.338;2023-07-22T07:02:30;97968.48;;;24.66;27.89
77893;BME280;67087;50.094;14.338;2023-07-22T07:04:56;97974.21;;;25.51;27.79
77893;BME280;67087;50.094;14.338;2023-07-22T07:07:21;97971.72;;;26.02;27.13
77893;BME280;67087;50.094;14.338;2023-07-22T07:09:46;97968.96;;;26.00;27.90
77893;BME280;67087;50.094;14.338;2023-07-22T07:12:11;97966.96;;;26.17;27.90
77893;BME280;67087;50.094;14.338;2023-07-22T07:14:36;97969.42;;;26.17;27.09
77893;BME280;67087;50.094;14.338;2023-07-22T07:17:02;97972.10;;;26.23;27.26
77893;BME280;67087;50.094;14.338;2023-07-22T07:19:28;97970.36;;;25.54;27.51
77893;BME280;67087;50.094;14.338;2023-07-22T07:21:51;97974.06;;;26.11;27.94
77893;BME280;67087;50.094;14.338;2023-07-22T07:24:17;97981.41;;;26.53;27.35
77893;BME280;67087;50.094;14.338;2023-07-22T07:26:42;97981.17;;;26.49;26.74
77893;BME280;67087;50.094;14.338;2023-07-22T07:29:07;97986.59;;;26.58;26.73
77893;BME280;67087;50.094;14.338;2023-07-22T07:31:32;97986.43;;;25.95;26.98
77893;BME280;67087;50.094;14.338;2023-07-22T07:33:57;97991.51;;;26.51;26.08
77893;BME280;67087;50.094;14.338;2023-07-22T07:36:24;97986.98;;;26.39;25.51
77893;BME280;67087;50.094;14.338;2023-07-22T07:38:47;97988.86;;;26.43;26.53
77893;BME280;67087;50.094;14.338;2023-07-22T07:41:13;97990.43;;;26.61;25.53
77893;BME280;67087;50.094;14.338;2023-07-22T07:43:38;97981.56;;;26.43;25.30
77893;BME280;67087;50.094;14.338;2023-07-22T07:46:13;97990.45;;;26.61;25.14
77893;BME280;67087;50.094;14.338;2023-07-22T07:48:28;97995.06;;;25.81;25.52
77893;BME280;67087;50.094;14.338;2023-07-22T07:50:53;97996.97;;;26.28;25.79
77893;BME280;67087;50.094;14.338;2023-07-22T07:53:18;97991.91;;;26.52;25.40
77893;BME280;67087;50.094;14.338;2023-07-22T07:55:43;97992.10;;;26.47;25.57
77893;BME280;67087;50.094;14.338;2023-07-22T07:58:09;97995.70;;;26.73;25.25
77893;BME280;67087;50.094;14.338;2023-07-22T08:00:34;97996.14;;;26.17;25.66
77893;BME280;67087;50.094;14.338;2023-07-22T08:02:59;97998.85;;;26.81;25.33
77893;BME280;67087;50.094;14.338;2023-07-22T08:05:24;97990.44;;;26.13;25.91
77893;BME280;67087;50.094;14.338;2023-07-22T08:07:49;97987.41;;;26.70;25.44
77893;BME280;67087;50.094;14.338;2023-07-22T08:10:14;97988.01;;;26.96;25.19
77893;BME280;67087;50.094;14.338;2023-07-22T08:12:39;97993.31;;;26.65;26.15
77893;BME280;67087;50.094;14.338;2023-07-22T08:15:05;97993.52;;;27.22;24.99
77893;BME280;67087;50.094;14.338;2023-07-22T08:17:29;97995.10;;;26.24;25.28
77893;BME280;67087;50.094;14.338;2023-07-22T08:19:55;97991.43;;;26.84;24.85
77893;BME280;67087;50.094;14.338;2023-07-22T08:22:21;97989.63;;;27.11;24.35
77893;BME280;67087;50.094;14.338;2023-07-22T08:24:45;97983.07;;;26.97;24.48
77893;BME280;67087;50.094;14.338;2023-07-22T08:27:11;97981.75;;;26.41;25.07
77893;BME280;67087;50.094;14.338;2023-07-22T08:29:36;97979.69;;;26.91;24.88
77893;BME280;67087;50.094;14.338;2023-07-22T08:32:01;97980.61;;;26.87;24.65
77893;BME280;67087;50.094;14.338;2023-07-22T08:34:26;97981.58;;;26.65;23.61
77893;BME280;67087;50.094;14.338;2023-07-22T08:36:51;97973.64;;;27.38;24.53
77893;BME280;67087;50.094;14.338;2023-07-22T08:39:16;97980.30;;;26.87;24.35
77893;BME280;67087;50.094;14.338;2023-07-22T08:41:45;97975.51;;;26.64;25.46
77893;BME280;67087;50.094;14.338;2023-07-22T08:44:08;97978.11;;;26.96;25.36
77893;BME280;67087;50.094;14.338;2023-07-22T08:46:33;97995.63;;;26.79;24.87
77893;BME280;67087;50.094;14.338;2023-07-22T08:48:59;97989.19;;;26.62;24.70
77893;BME280;67087;50.094;14.338;2023-07-22T08:51:22;97984.17;;;26.90;24.73
77893;BME280;67087;50.094;14.338;2023-07-22T08:53:48;97987.44;;;26.54;25.07
77893;BME280;67087;50.094;14.338;2023-07-22T08:56:12;97987.35;;;26.95;24.36
77893;BME280;67087;50.094;14.338;2023-07-22T08:58:38;97988.54;;;26.68;24.52
77893;BME280;67087;50.094;14.338;2023-07-22T09:01:02;97988.69;;;26.68;24.70
77893;BME280;67087;50.094;14.338;2023-07-22T09:03:28;97989.32;;;26.20;24.66
77893;BME280;67087;50.094;14.338;2023-07-22T09:05:53;97987.91;;;26.86;24.55
77893;BME280;67087;50.094;14.338;2023-07-22T09:08:18;97991.20;;;26.85;24.32
77893;BME280;67087;50.094;14.338;2023-07-22T09:10:43;97994.10;;;26.76;24.33
77893;BME280;67087;50.094;14.338;2023-07-22T09:13:08;97987.68;;;26.74;24.22
77893;BME280;67087;50.094;14.338;2023-07-22T09:15:35;97987.77;;;27.01;23.96
77893;BME280;67087;50.094;14.338;2023-07-22T09:17:59;97989.86;;;27.00;24.13
77893;BME280;67087;50.094;14.338;2023-07-22T09:20:24;97987.49;;;26.38;24.21
77893;BME280;67087;50.094;14.338;2023-07-22T09:22:50;97982.07;;;26.91;24.06
77893;BME280;67087;50.094;14.338;2023-07-22T09:25:17;97980.28;;;27.01;24.32
77893;BME280;67087;50.094;14.338;2023-07-22T09:27:39;97983.37;;;26.84;24.26
77893;BME280;67087;50.094;14.338;2023-07-22T09:32:35;97987.23;;;26.35;24.28
77893;BME280;67087;50.094;14.338;2023-07-22T09:34:54;97980.54;;;27.03;24.10
77893;BME280;67087;50.094;14.338;2023-07-22T09:37:19;97977.68;;;26.89;24.25
77893;BME280;67087;50.094;14.338;2023-07-22T09:39:47;97967.35;;;26.92;24.26
77893;BME280;67087;50.094;14.338;2023-07-22T09:42:10;97970.19;;;27.03;24.17
77893;BME280;67087;50.094;14.338;2023-07-22T09:44:35;97975.40;;;26.78;24.26
77893;BME280;67087;50.094;14.338;2023-07-22T09:47:06;97985.77;;;26.97;24.36
77893;BME280;67087;50.094;14.338;2023-07-22T09:49:26;97987.98;;;26.62;24.05
77893;BME280;67087;50.094;14.338;2023-07-22T09:51:50;97990.04;;;27.14;23.91
77893;BME280;67087;50.094;14.338;2023-07-22T09:54:15;97988.84;;;26.91;24.23
77893;BME280;67087;50.094;14.338;2023-07-22T09:56:45;97987.29;;;26.99;24.25
77893;BME280;67087;50.094;14.338;2023-07-22T09:59:05;97988.11;;;27.06;24.26
77893;BME280;67087;50.094;14.338;2023-07-22T10:01:31;97998.60;;;26.90;24.17
77893;BME280;67087;50.094;14.338;2023-07-22T10:03:56;97986.88;;;26.97;24.19
77893;BME280;67087;50.094;14.338;2023-07-22T10:06:23;97984.43;;;27.28;24.09
77893;BME280;67087;50.094;14.338;2023-07-22T10:08:46;97985.80;;;27.15;24.13
77893;BME280;67087;50.094;14.338;2023-07-22T10:11:11;97985.75;;;27.22;23.89
77893;BME280;67087;50.094;14.338;2023-07-22T10:13:36;97974.35;;;27.12;23.99
77893;BME280;67087;50.094;14.338;2023-07-22T10:16:01;97976.65;;;27.04;24.07
77893;BME280;67087;50.094;14.338;2023-07-22T10:18:27;97975.29;;;26.43;23.90
77893;BME280;67087;50.094;14.338;2023-07-22T10:20:52;97973.89;;;27.25;23.70
77893;BME280;67087;50.094;14.338;2023-07-22T10:23:17;97969.27;;;27.32;23.65
77893;BME280;67087;50.094;14.338;2023-07-22T10:25:42;97971.24;;;26.89;23.87
77893;BME280;67087;50.094;14.338;2023-07-22T10:28:06;97980.49;;;27.19;23.82
77893;BME280;67087;50.094;14.338;2023-07-22T10:30:32;97977.58;;;26.94;23.14
77893;BME280;67087;50.094;14.338;2023-07-22T10:32:57;97977.95;;;27.03;23.69
77893;BME280;67087;50.094;14.338;2023-07-22T10:35:34;97970.04;;;27.07;23.64
77893;BME280;67087;50.094;14.338;2023-07-22T10:37:47;97971.77;;;27.12;23.79
77893;BME280;67087;50.094;14.338;2023-07-22T10:40:19;97966.93;;;27.08;23.57
77893;BME280;67087;50.094;14.338;2023-07-22T10:42:37;97966.36;;;26.89;23.39
77893;BME280;67087;50.094;14.338;2023-07-22T10:45:03;97962.36;;;27.42;23.30
77893;BME280;67087;50.094;14.338;2023-07-22T10:47:32;97955.36;;;26.73;23.10
77893;BME280;67087;50.094;14.338;2023-07-22T10:49:52;97957.93;;;27.11;23.45
77893;BME280;67087;50.094;14.338;2023-07-22T10:54:43;97962.13;;;26.98;23.08
77893;BME280;67087;50.094;14.338;2023-07-22T10:57:23;97965.19;;;27.49;23.18
77893;BME280;67087;50.094;14.338;2023-07-22T10:59:33;97960.21;;;26.80;23.05
77893;BME280;67087;50.094;14.338;2023-07-22T11:01:58;97963.25;;;27.18;22.79
77893;BME280;67087;50.094;14.338;2023-07-22T11:04:24;97960.61;;;27.26;22.92
77893;BME280;67087;50.094;14.338;2023-07-22T11:06:53;97964.83;;;27.18;22.94
77893;BME280;67087;50.094;14.338;2023-07-22T11:11:40;97965.60;;;26.98;22.97
77893;BME280;67087;50.094;14.338;2023-07-22T11:14:14;97958.05;;;27.39;22.68
77893;BME280;67087;50.094;14.338;2023-07-22T11:16:29;97959.10;;;26.96;22.74
77893;BME280;67087;50.094;14.338;2023-07-22T11:18:54;97962.60;;;27.14;23.06
77893;BME280;67087;50.094;14.338;2023-07-22T11:21:20;97962.29;;;27.28;23.09
77893;BME280;67087;50.094;14.338;2023-07-22T11:23:45;97961.69;;;27.18;22.58
77893;BME280;67087;50.094;14.338;2023-07-22T11:26:10;97968.74;;;27.67;22.33
77893;BME280;67087;50.094;14.338;2023-07-22T11:28:35;97964.41;;;26.75;22.48
77893;BME280;67087;50.094;14.338;2023-07-22T11:31:00;97961.45;;;27.21;22.23
77893;BME280;67087;50.094;14.338;2023-07-22T11:33:26;97959.08;;;26.96;22.21
77893;BME280;67087;50.094;14.338;2023-07-22T11:35:50;97954.84;;;27.46;22.14
77893;BME280;67087;50.094;14.338;2023-07-22T11:38:16;97947.84;;;27.24;22.65
77893;BME280;67087;50.094;14.338;2023-07-22T11:40:41;97947.94;;;27.61;22.21
77893;BME280;67087;50.094;14.338;2023-07-22T11:43:06;97946.14;;;27.44;22.30
77893;BME280;67087;50.094;14.338;2023-07-22T11:45:31;97953.29;;;27.20;21.90
77893;BME280;67087;50.094;14.338;2023-07-22T11:47:56;97945.51;;;27.79;21.80
77893;BME280;67087;50.094;14.338;2023-07-22T11:50:30;97949.68;;;27.82;21.78
77893;BME280;67087;50.094;14.338;2023-07-22T11:52:50;97943.62;;;27.59;21.84
77893;BME280;67087;50.094;14.338;2023-07-22T11:55:11;97950.00;;;27.89;21.37
77893;BME280;67087;50.094;14.338;2023-07-22T11:57:39;97940.26;;;27.52;21.56
77893;BME280;67087;50.094;14.338;2023-07-22T12:00:02;97934.39;;;27.66;21.68
77893;BME280;67087;50.094;14.338;2023-07-22T12:02:28;97928.70;;;27.31;21.20
77893;BME280;67087;50.094;14.338;2023-07-22T12:04:52;97927.36;;;27.63;21.52
77893;BME280;67087;50.094;14.338;2023-07-22T12:07:24;97925.71;;;27.64;21.53
77893;BME280;67087;50.094;14.338;2023-07-22T12:09:47;97939.29;;;28.27;20.91
77893;BME280;67087;50.094;14.338;2023-07-22T12:12:08;97937.11;;;27.58;21.58
77893;BME280;67087;50.094;14.338;2023-07-22T12:14:34;97936.14;;;27.15;21.46
77893;BME280;67087;50.094;14.338;2023-07-22T12:16:57;97937.88;;;27.39;21.60
77893;BME280;67087;50.094;14.338;2023-07-22T12:19:23;97942.57;;;27.54;21.26
77893;BME280;67087;50.094;14.338;2023-07-22T12:21:47;97941.20;;;27.85;20.64
77893;BME280;67087;50.094;14.338;2023-07-22T12:24:14;97939.21;;;27.55;21.20
77893;BME280;67087;50.094;14.338;2023-07-22T12:26:38;97940.59;;;27.74;20.75
77893;BME280;67087;50.094;14.338;2023-07-22T12:29:03;97927.99;;;27.51;20.60
77893;BME280;67087;50.094;14.338;2023-07-22T12:31:28;97941.24;;;27.04;21.00
77893;BME280;67087;50.094;14.338;2023-07-22T12:33:53;97936.06;;;27.87;20.44
77893;BME280;67087;50.094;14.338;2023-07-22T12:36:18;97935.21;;;27.63;20.89
77893;BME280;67087;50.094;14.338;2023-07-22T12:38:43;97930.25;;;26.97;21.10
77893;BME280;67087;50.094;14.338;2023-07-22T12:41:08;97930.69;;;27.65;21.02
77893;BME280;67087;50.094;14.338;2023-07-22T12:43:33;97924.36;;;27.23;20.86
77893;BME280;67087;50.094;14.338;2023-07-22T12:45:58;97931.11;;;27.92;20.64
77893;BME280;67087;50.094;14.338;2023-07-22T12:48:24;97928.02;;;27.26;20.73